createdAt,value
2018-07-26T00:00:44.393Z,65.47
2018-07-26T00:03:12.421Z,64.62
2018-07-26T00:05:40.469Z,65.36
2018-07-26T00:08:08.514Z,64.37
2018-07-26T00:10:36.540Z,64.50
2018-07-26T00:13:04.943Z,64.21
2018-07-26T00:15:32.880Z,64.93
2018-07-26T00:18:00.912Z,65.16
2018-07-26T00:20:29.009Z,65.07
2018-07-26T00:22:57.046Z,64.45
2018-07-26T00:25:25.093Z,64.09
2018-07-26T00:27:53.137Z,63.47
2018-07-26T00:30:21.182Z,63.75
2018-07-26T00:32:49.348Z,63.45
2018-07-26T00:35:17.416Z,64.14
2018-07-26T00:37:45.463Z,63.13
2018-07-26T00:40:13.491Z,63.72
2018-07-26T00:42:41.534Z,63.26
2018-07-26T00:45:09.561Z,63.74
2018-07-26T00:47:37.592Z,62.82
2018-07-26T00:50:06.227Z,63.39
2018-07-26T00:52:34.262Z,62.85
2018-07-26T00:55:02.286Z,63.27
2018-07-26T00:57:30.322Z,63.35
2018-07-26T00:59:58.360Z,62.62
2018-07-26T01:02:26.385Z,62.55
2018-07-26T01:04:54.413Z,62.75
2018-07-26T01:07:22.444Z,63.15
2018-07-26T01:09:50.473Z,63.54
2018-07-26T01:12:18.515Z,62.91
2018-07-26T01:14:46.552Z,63.80
2018-07-26T01:17:14.600Z,63.51
2018-07-26T01:19:42.620Z,63.54
2018-07-26T01:22:10.807Z,63.09
2018-07-26T01:24:38.836Z,63.77
2018-07-26T01:27:06.865Z,63.57
2018-07-26T01:29:34.900Z,63.70
2018-07-26T01:32:02.929Z,63.63
2018-07-26T01:34:30.956Z,63.06
2018-07-26T01:36:58.985Z,63.63
2018-07-26T01:39:27.039Z,63.12
2018-07-26T01:42:01.729Z,62.86
2018-07-26T01:44:29.908Z,63.29
2018-07-26T01:46:58.231Z,62.83
2018-07-26T01:49:26.261Z,63.06
2018-07-26T01:51:54.284Z,63.44
2018-07-26T01:54:22.316Z,63.14
2018-07-26T01:56:50.356Z,63.99
2018-07-26T01:59:18.394Z,63.16
2018-07-26T02:01:46.467Z,63.35
2018-07-26T02:04:14.464Z,63.15
2018-07-26T02:06:42.499Z,63.39
2018-07-26T02:09:11.110Z,63.99
2018-07-26T02:11:39.144Z,63.65
2018-07-26T02:14:11.371Z,64.00
2018-07-26T02:16:39.396Z,63.96
2018-07-26T02:19:07.773Z,63.70
2018-07-26T02:21:35.817Z,63.92
2018-07-26T02:24:04.814Z,64.60
2018-07-26T02:26:33.008Z,64.53
2018-07-26T02:29:01.024Z,64.34
2018-07-26T02:31:29.085Z,63.85
2018-07-26T02:33:57.120Z,64.89
2018-07-26T02:36:25.156Z,64.14
2018-07-26T02:38:53.186Z,64.75
2018-07-26T02:41:21.250Z,64.25
2018-07-26T02:43:49.266Z,64.25
2018-07-26T02:46:17.465Z,64.35
2018-07-26T02:48:45.485Z,64.62
2018-07-26T02:51:13.529Z,64.58
2018-07-26T02:53:41.590Z,65.46
2018-07-26T02:56:09.620Z,65.22
2018-07-26T02:58:37.661Z,64.94
2018-07-26T03:01:05.689Z,65.42
2018-07-26T03:03:33.717Z,65.43
2018-07-26T03:06:01.727Z,65.47
2018-07-26T03:08:29.829Z,65.68
2018-07-26T03:10:57.986Z,64.73
2018-07-26T03:13:26.022Z,65.27
2018-07-26T03:15:54.045Z,65.13
2018-07-26T03:18:22.073Z,65.05
2018-07-26T03:20:50.350Z,65.38
2018-07-26T03:23:18.304Z,65.16
2018-07-26T03:25:46.332Z,65.39
2018-07-26T03:28:14.357Z,65.17
2018-07-26T03:30:42.378Z,65.64
2018-07-26T03:33:10.392Z,65.71
2018-07-26T03:35:38.407Z,65.48
2018-07-26T03:38:06.481Z,65.48
2018-07-26T03:40:34.564Z,65.47
2018-07-26T03:43:02.592Z,65.10
2018-07-26T03:45:30.616Z,65.74
2018-07-26T03:47:58.653Z,65.79
2018-07-26T03:50:26.669Z,66.11
2018-07-26T03:52:54.711Z,65.93
2018-07-26T03:55:22.741Z,66.10
2018-07-26T03:57:50.900Z,66.36
2018-07-26T04:00:18.906Z,65.70
2018-07-26T04:02:47.149Z,66.03
2018-07-26T04:05:15.189Z,65.26
2018-07-26T04:07:43.379Z,65.52
2018-07-26T04:10:11.409Z,65.14
2018-07-26T04:12:39.417Z,65.18
2018-07-26T04:15:07.476Z,65.82
2018-07-26T04:17:35.586Z,65.06
2018-07-26T04:20:03.690Z,65.95
2018-07-26T04:22:31.653Z,65.64
2018-07-26T04:24:59.699Z,65.93
2018-07-26T04:27:27.721Z,65.20
2018-07-26T04:29:55.933Z,64.85
2018-07-26T04:32:23.969Z,65.30
2018-07-26T04:34:52.006Z,65.24
2018-07-26T04:37:20.036Z,65.32
2018-07-26T04:39:48.052Z,65.58
2018-07-26T04:42:16.091Z,65.58
2018-07-26T04:44:44.342Z,65.01
2018-07-26T04:47:12.373Z,65.26
2018-07-26T04:49:40.496Z,65.70
2018-07-26T04:52:08.540Z,64.87
2018-07-26T04:54:36.641Z,65.13
2018-07-26T04:57:04.989Z,66.34
2018-07-26T04:59:33.044Z,65.22
2018-07-26T05:02:01.070Z,65.26
2018-07-26T05:04:29.085Z,65.88
2018-07-26T05:06:58.410Z,65.95
2018-07-26T05:09:26.458Z,65.38
2018-07-26T05:11:54.493Z,64.98
2018-07-26T05:14:22.535Z,65.05
2018-07-26T05:16:50.833Z,65.99
2018-07-26T05:19:18.847Z,65.33
2018-07-26T05:21:46.905Z,65.57
2018-07-26T05:24:15.026Z,65.94
2018-07-26T05:26:43.097Z,65.56
2018-07-26T05:29:11.135Z,65.51
2018-07-26T05:31:39.168Z,65.24
2018-07-26T05:34:07.196Z,66.09
2018-07-26T05:36:35.226Z,65.35
2018-07-26T05:39:03.297Z,66.09
2018-07-26T05:41:31.330Z,66.27
2018-07-26T05:43:59.382Z,66.14
2018-07-26T05:46:27.409Z,65.38
2018-07-26T05:48:55.443Z,65.62
2018-07-26T05:51:23.481Z,66.18
2018-07-26T05:53:51.681Z,65.79
2018-07-26T05:56:19.701Z,65.81
2018-07-26T05:58:47.819Z,65.44
2018-07-26T06:01:15.888Z,66.47
2018-07-26T06:03:44.205Z,65.60
2018-07-26T06:06:12.256Z,65.17
2018-07-26T06:08:40.306Z,65.89
2018-07-26T06:11:08.397Z,65.99
2018-07-26T06:13:36.463Z,65.50
2018-07-26T06:16:04.974Z,64.81
2018-07-26T06:18:33.008Z,65.16
2018-07-26T06:21:01.294Z,65.28
2018-07-26T06:23:29.349Z,64.76
2018-07-26T06:25:57.454Z,60.86
2018-07-26T06:28:25.489Z,62.74
2018-07-26T06:30:53.497Z,63.85
2018-07-26T06:33:21.551Z,63.36
2018-07-26T06:35:49.538Z,63.11
2018-07-26T06:38:17.556Z,62.10
2018-07-26T06:40:45.572Z,61.84
2018-07-26T06:43:13.625Z,60.58
2018-07-26T06:45:41.693Z,60.58
2018-07-26T06:48:09.721Z,61.13
2018-07-26T06:50:37.748Z,59.73
2018-07-26T06:53:05.936Z,60.14
2018-07-26T06:55:33.967Z,60.30
2018-07-26T06:58:01.982Z,58.86
2018-07-26T07:00:30.005Z,58.95
2018-07-26T07:02:58.013Z,57.69
2018-07-26T07:05:26.125Z,56.42
2018-07-26T07:07:54.156Z,55.83
2018-07-26T07:10:22.401Z,56.68
2018-07-26T07:12:50.421Z,56.34
2018-07-26T07:15:18.593Z,55.82
2018-07-26T07:17:46.605Z,54.93
2018-07-26T07:20:15.160Z,54.98
2018-07-26T07:22:43.341Z,54.50
2018-07-26T07:25:11.366Z,53.78
2018-07-26T07:27:39.541Z,54.57
2018-07-26T07:30:09.899Z,53.29
2018-07-26T07:32:37.930Z,53.50
2018-07-26T07:35:06.387Z,51.36
2018-07-26T07:37:34.397Z,52.25
2018-07-26T07:40:02.651Z,50.76
2018-07-26T07:42:30.713Z,49.25
2018-07-26T07:44:58.733Z,49.61
2018-07-26T07:47:26.763Z,50.52
2018-07-26T07:49:54.797Z,50.52
2018-07-26T07:52:23.605Z,49.82
2018-07-26T07:54:51.688Z,48.61
2018-07-26T07:57:19.741Z,49.34
2018-07-26T07:59:47.849Z,47.99
2018-07-26T08:02:15.845Z,47.81
2018-07-26T08:04:43.986Z,48.25
2018-07-26T08:07:12.006Z,47.49
2018-07-26T08:09:40.024Z,47.44
2018-07-26T08:12:08.040Z,47.10
2018-07-26T08:14:36.231Z,47.10
2018-07-26T08:17:04.764Z,45.92
2018-07-26T08:19:32.801Z,45.05
2018-07-26T08:22:00.832Z,44.29
2018-07-26T08:24:28.860Z,44.05
2018-07-26T08:26:56.908Z,43.46
2018-07-26T08:29:25.039Z,43.33
2018-07-26T08:31:53.028Z,42.43
2018-07-26T08:34:21.060Z,41.35
2018-07-26T08:36:49.082Z,41.03
2018-07-26T08:39:17.104Z,41.00
2018-07-26T08:41:45.119Z,41.22
2018-07-26T08:44:13.140Z,40.99
2018-07-26T08:46:41.162Z,40.45
2018-07-26T08:49:09.209Z,40.15
2018-07-26T08:51:37.347Z,39.21
2018-07-26T08:54:05.750Z,37.89
2018-07-26T08:56:33.941Z,37.42
2018-07-26T08:59:02.024Z,36.83
2018-07-26T09:01:30.037Z,37.46
2018-07-26T09:03:58.068Z,37.13
2018-07-26T09:06:26.081Z,37.30
2018-07-26T09:08:54.120Z,35.89
2018-07-26T09:11:22.189Z,36.66
2018-07-26T09:13:50.335Z,36.08
2018-07-26T09:16:18.333Z,35.82
2018-07-26T09:18:46.358Z,36.70
2018-07-26T09:21:14.389Z,35.79
2018-07-26T09:23:42.463Z,34.81
2018-07-26T09:26:10.490Z,34.78
2018-07-26T09:28:38.556Z,34.59
2018-07-26T09:31:06.750Z,34.46
2018-07-26T09:33:34.830Z,34.06
2018-07-26T09:36:02.893Z,33.86
2018-07-26T09:38:30.972Z,34.57
2018-07-26T09:40:59.042Z,34.41
2018-07-26T09:43:27.070Z,33.23
2018-07-26T09:45:55.785Z,33.25
2018-07-26T09:48:23.863Z,32.78
2018-07-26T09:50:51.883Z,32.49
2018-07-26T09:53:20.014Z,33.16
2018-07-26T09:55:48.395Z,33.19
2018-07-26T09:58:16.409Z,33.36
2018-07-26T10:00:49.736Z,32.87
2018-07-26T10:03:17.760Z,32.19
2018-07-26T10:05:45.790Z,33.44
2018-07-26T10:08:13.805Z,32.36
2018-07-26T10:10:41.821Z,32.33
2018-07-26T10:13:09.837Z,32.79
2018-07-26T10:15:37.882Z,32.50
2018-07-26T10:18:06.277Z,31.33
2018-07-26T10:20:34.292Z,29.69
2018-07-26T10:23:02.318Z,30.49
2018-07-26T10:25:30.345Z,31.01
2018-07-26T10:27:58.359Z,29.75
2018-07-26T10:30:26.555Z,30.17
2018-07-26T10:32:54.720Z,27.86
2018-07-26T10:35:22.747Z,28.40
2018-07-26T10:37:50.776Z,28.92
2018-07-26T10:40:18.817Z,28.45
2018-07-26T10:42:46.845Z,27.59
2018-07-26T10:45:14.861Z,27.00
2018-07-26T10:47:42.889Z,25.92
2018-07-26T10:50:11.456Z,25.96
2018-07-26T10:52:39.637Z,25.83
2018-07-26T10:55:08.197Z,25.58
2018-07-26T10:57:37.310Z,25.37
2018-07-26T11:00:06.525Z,25.39
2018-07-26T11:02:34.572Z,25.13
2018-07-26T11:05:02.584Z,26.35
2018-07-26T11:07:30.600Z,25.51
2018-07-26T11:09:58.624Z,24.24
2018-07-26T11:12:26.672Z,23.95
2018-07-26T11:14:59.651Z,24.15
2018-07-26T11:17:27.668Z,24.44
2018-07-26T11:19:55.688Z,24.29
2018-07-26T11:22:23.712Z,23.44
2018-07-26T11:24:55.920Z,24.10
2018-07-26T11:27:25.136Z,23.61
2018-07-26T11:29:53.305Z,23.60
2018-07-26T11:32:21.380Z,24.17
2018-07-26T11:34:49.375Z,24.14
2018-07-26T11:37:17.608Z,22.16
2018-07-26T11:39:45.644Z,21.67
2018-07-26T11:42:13.777Z,21.64
2018-07-26T11:44:41.815Z,21.77
2018-07-26T11:47:09.912Z,22.47
2018-07-26T11:49:37.944Z,21.90
2018-07-26T11:52:06.532Z,21.59
2018-07-26T11:54:34.869Z,21.69
2018-07-26T11:57:02.945Z,20.93
2018-07-26T11:59:31.172Z,20.44
2018-07-26T12:01:59.191Z,21.59
2018-07-26T12:04:27.468Z,21.68
2018-07-26T12:06:55.613Z,22.27
2018-07-26T12:09:23.699Z,21.12
2018-07-26T12:11:51.715Z,21.32
2018-07-26T12:14:19.756Z,21.43
2018-07-26T12:16:47.772Z,21.32
2018-07-26T12:19:15.795Z,20.54
2018-07-26T12:21:43.822Z,21.51
2018-07-26T12:24:12.013Z,21.82
2018-07-26T12:26:40.086Z,21.91
2018-07-26T12:29:08.492Z,20.17
2018-07-26T12:31:36.554Z,20.74
2018-07-26T12:36:58.246Z,21.54
2018-07-26T12:39:26.551Z,21.24
2018-07-26T12:41:54.566Z,21.28
2018-07-26T12:44:22.589Z,21.01
2018-07-26T12:46:50.639Z,20.95
2018-07-26T12:49:18.657Z,21.89
2018-07-26T12:51:46.920Z,21.49
2018-07-26T12:54:14.989Z,21.06
2018-07-26T12:56:43.061Z,21.42
2018-07-26T12:59:11.137Z,22.04
2018-07-26T13:01:39.215Z,22.13
2018-07-26T13:04:07.289Z,21.18
2018-07-26T13:06:35.348Z,21.71
2018-07-26T13:09:03.448Z,21.50
2018-07-26T13:11:31.473Z,20.92
2018-07-26T13:13:59.489Z,20.81
2018-07-26T13:16:27.530Z,21.49
2018-07-26T13:18:55.551Z,20.83
2018-07-26T13:21:23.556Z,21.18
2018-07-26T13:23:51.576Z,21.47
2018-07-26T13:26:19.612Z,20.73
2018-07-26T13:28:47.763Z,20.70
2018-07-26T13:31:16.096Z,21.12
2018-07-26T13:33:44.095Z,20.44
2018-07-26T13:36:12.201Z,20.46
2018-07-26T13:38:40.212Z,20.81
2018-07-26T13:41:08.258Z,20.70
2018-07-26T13:43:36.284Z,21.17
2018-07-26T13:46:04.740Z,21.07
2018-07-26T13:48:32.876Z,21.27
2018-07-26T13:51:01.293Z,20.31
2018-07-26T13:53:29.336Z,21.18
2018-07-26T13:55:57.358Z,21.34
2018-07-26T13:58:25.389Z,20.84
2018-07-26T14:00:53.401Z,20.62
2018-07-26T14:03:21.437Z,20.81
2018-07-26T14:05:49.472Z,20.93
2018-07-26T14:08:17.497Z,21.47
2018-07-26T14:10:45.559Z,20.63
2018-07-26T14:13:13.628Z,20.30
2018-07-26T14:15:41.678Z,20.27
2018-07-26T14:18:09.628Z,20.87
2018-07-26T14:20:37.703Z,21.44
2018-07-26T14:23:05.871Z,19.46
2018-07-26T14:25:33.948Z,20.48
2018-07-26T14:28:02.003Z,20.73
2018-07-26T14:30:30.183Z,20.82
2018-07-26T14:32:58.464Z,20.46
2018-07-26T14:35:26.488Z,21.03
2018-07-26T14:37:54.529Z,21.71
2018-07-26T14:40:22.569Z,20.53
2018-07-26T14:42:50.609Z,20.47
2018-07-26T14:45:18.639Z,21.47
2018-07-26T14:47:46.668Z,20.88
2018-07-26T14:50:14.684Z,21.00
2018-07-26T14:52:42.722Z,21.10
2018-07-26T14:55:10.755Z,21.79
2018-07-26T14:57:38.779Z,21.19
2018-07-26T15:00:06.933Z,21.38
2018-07-26T15:02:37.030Z,21.74
2018-07-26T15:10:50.836Z,21.41
2018-07-26T15:13:18.861Z,21.31
2018-07-26T15:15:46.872Z,21.07
2018-07-26T15:18:14.920Z,21.36
2018-07-26T15:20:42.929Z,22.07
2018-07-26T15:23:10.967Z,22.73
2018-07-26T15:25:38.993Z,22.50
2018-07-26T15:28:07.068Z,22.98
2018-07-26T15:30:35.096Z,23.71
2018-07-26T15:33:03.114Z,23.38
2018-07-26T15:35:31.236Z,23.25
2018-07-26T15:37:59.313Z,22.97
2018-07-26T15:40:27.328Z,22.94
2018-07-26T15:42:55.367Z,23.08
2018-07-26T15:45:23.628Z,22.41
2018-07-26T15:47:51.649Z,22.48
2018-07-26T15:50:19.697Z,22.59
2018-07-26T15:52:47.738Z,23.06
2018-07-26T15:55:15.813Z,22.22
2018-07-26T15:57:43.897Z,23.32
2018-07-26T16:00:12.208Z,22.38
2018-07-26T16:02:40.296Z,22.73
2018-07-26T16:05:08.665Z,23.63
2018-07-26T16:07:36.949Z,23.53
2018-07-26T16:10:05.580Z,24.18
2018-07-26T16:12:33.866Z,23.63
2018-07-26T16:15:02.881Z,24.36
2018-07-26T16:17:31.108Z,24.42
2018-07-26T16:19:59.117Z,23.28
2018-07-26T16:22:27.401Z,23.92
2018-07-26T16:24:55.381Z,22.79
2018-07-26T16:27:23.409Z,22.60
2018-07-26T16:29:51.426Z,23.40
2018-07-26T16:32:19.551Z,23.67
2018-07-26T16:34:47.580Z,23.78
2018-07-26T16:37:22.135Z,23.88
2018-07-26T16:39:50.212Z,24.28
2018-07-26T16:42:18.184Z,24.55
2018-07-26T16:44:46.451Z,24.62
2018-07-26T16:47:14.529Z,24.89
2018-07-26T16:49:42.575Z,24.16
2018-07-26T16:52:10.602Z,24.49
2018-07-26T16:54:38.653Z,24.29
2018-07-26T16:57:06.666Z,24.11
2018-07-26T16:59:34.700Z,24.07
2018-07-26T17:02:02.762Z,24.02
2018-07-26T17:04:30.810Z,23.79
2018-07-26T17:06:58.836Z,23.44
2018-07-26T17:09:26.861Z,24.31
2018-07-26T17:11:54.886Z,23.65
2018-07-26T17:14:22.944Z,23.22
2018-07-26T17:16:50.981Z,23.22
2018-07-26T17:19:19.013Z,23.93
2018-07-26T17:21:47.190Z,24.50
2018-07-26T17:24:15.244Z,23.85
2018-07-26T17:26:43.271Z,23.91
2018-07-26T17:29:11.880Z,24.73
2018-07-26T17:31:39.837Z,24.91
2018-07-26T17:34:07.897Z,23.10
2018-07-26T17:36:35.945Z,24.38
2018-07-26T17:39:07.063Z,24.73
2018-07-26T17:41:35.093Z,24.64
2018-07-26T17:44:03.123Z,25.46
2018-07-26T17:46:31.154Z,25.34
2018-07-26T17:48:59.176Z,25.14
2018-07-26T17:51:27.216Z,25.26
2018-07-26T17:53:55.236Z,26.11
2018-07-26T17:56:23.260Z,24.92
2018-07-26T17:58:51.433Z,25.60
2018-07-26T18:01:20.068Z,26.36
2018-07-26T18:03:48.081Z,26.32
2018-07-26T18:06:16.121Z,25.65
2018-07-26T18:08:44.149Z,26.30
2018-07-26T18:11:12.176Z,26.74
2018-07-26T18:13:40.215Z,26.20
2018-07-26T18:16:08.236Z,25.62
2018-07-26T18:18:36.282Z,26.25
2018-07-26T18:21:04.836Z,25.80
2018-07-26T18:23:32.872Z,25.68
2018-07-26T18:26:00.920Z,26.65
2018-07-26T18:28:28.950Z,25.97
2018-07-26T18:30:56.984Z,26.87
2018-07-26T18:33:25.029Z,26.70
2018-07-26T18:35:53.065Z,27.23
2018-07-26T18:38:21.147Z,26.60
2018-07-26T18:40:49.151Z,27.79
2018-07-26T18:43:17.177Z,28.08
2018-07-26T18:45:45.221Z,27.23
2018-07-26T18:48:13.270Z,28.05
2018-07-26T18:50:41.296Z,27.32
2018-07-26T18:53:09.324Z,27.45
2018-07-26T18:55:37.362Z,28.46
2018-07-26T18:58:05.398Z,28.74
2018-07-26T19:00:33.429Z,29.07
2018-07-26T19:03:01.473Z,28.21
2018-07-26T19:05:29.509Z,28.10
2018-07-26T19:07:57.537Z,28.15
2018-07-26T19:10:25.555Z,29.13
2018-07-26T19:12:53.601Z,29.00
2018-07-26T19:15:21.660Z,29.89
2018-07-26T19:17:49.687Z,29.28
2018-07-26T19:20:17.739Z,29.75
2018-07-26T19:22:45.764Z,29.79
2018-07-26T19:25:13.810Z,30.24
2018-07-26T19:27:41.833Z,30.88
2018-07-26T19:30:12.015Z,30.39
2018-07-26T19:32:40.061Z,29.80
2018-07-26T19:35:08.109Z,30.96
2018-07-26T19:37:36.276Z,31.31
2018-07-26T19:40:05.966Z,31.58
2018-07-26T19:42:34.296Z,31.26
2018-07-26T19:45:02.360Z,31.63
2018-07-26T19:47:30.396Z,31.24
2018-07-26T19:49:58.434Z,31.82
2018-07-26T19:52:26.636Z,31.61
2018-07-26T19:54:54.736Z,31.11
2018-07-26T19:57:22.772Z,31.95
2018-07-26T19:59:50.801Z,33.02
2018-07-26T20:02:18.999Z,32.41
2018-07-26T20:04:47.023Z,32.29
2018-07-26T20:07:15.045Z,32.54
2018-07-26T20:09:43.084Z,33.05
2018-07-26T20:12:11.113Z,33.34
2018-07-26T20:14:39.134Z,32.37
2018-07-26T20:17:07.210Z,32.20
2018-07-26T20:19:35.261Z,32.54
2018-07-26T20:22:03.302Z,33.05
2018-07-26T20:24:31.340Z,34.03
2018-07-26T20:26:59.392Z,32.82
2018-07-26T20:29:27.492Z,33.31
2018-07-26T20:31:55.569Z,33.73
2018-07-26T20:34:23.648Z,33.57
2018-07-26T20:36:51.753Z,33.31
2018-07-26T20:39:19.826Z,34.47
2018-07-26T20:41:47.865Z,34.77
2018-07-26T20:44:15.925Z,34.54
2018-07-26T20:46:43.984Z,34.39
2018-07-26T20:49:12.074Z,34.67
2018-07-26T20:51:40.125Z,34.50
2018-07-26T20:54:08.215Z,35.87
2018-07-26T20:56:36.227Z,35.15
2018-07-26T20:59:04.952Z,35.05
2018-07-26T21:01:32.996Z,35.81
2018-07-26T21:04:01.613Z,36.45
2018-07-26T21:06:29.841Z,36.33
2018-07-26T21:08:57.902Z,35.60
2018-07-26T21:11:25.957Z,35.40
2018-07-26T21:13:54.004Z,35.67
2018-07-26T21:16:22.272Z,36.33
2018-07-26T21:18:50.369Z,37.19
2018-07-26T21:21:18.440Z,36.64
2018-07-26T21:23:46.614Z,37.37
2018-07-26T21:26:14.659Z,36.44
2018-07-26T21:28:42.695Z,37.03
2018-07-26T21:31:11.034Z,37.20
2018-07-26T21:33:39.089Z,37.09
2018-07-26T21:36:07.465Z,38.04
2018-07-26T21:38:35.512Z,38.19
2018-07-26T21:41:03.581Z,38.39
2018-07-26T21:43:31.656Z,37.59
2018-07-26T21:45:59.702Z,38.36
2018-07-26T21:48:27.733Z,39.00
2018-07-26T21:50:55.767Z,38.61
2018-07-26T21:53:23.800Z,39.59
2018-07-26T21:55:51.845Z,39.58
2018-07-26T21:58:20.036Z,38.98
2018-07-26T22:00:53.433Z,39.37
2018-07-26T22:03:21.468Z,38.76
2018-07-26T22:05:49.502Z,40.17
2018-07-26T22:08:17.533Z,39.75
2018-07-26T22:10:45.584Z,39.42
2018-07-26T22:13:13.630Z,39.92
2018-07-26T22:15:41.675Z,38.83
2018-07-26T22:18:09.720Z,39.01
2018-07-26T22:20:37.741Z,40.00
2018-07-26T22:23:05.972Z,39.06
2018-07-26T22:25:34.116Z,40.03
2018-07-26T22:28:02.163Z,40.15
2018-07-26T22:30:30.233Z,39.60
2018-07-26T22:32:58.609Z,40.09
2018-07-26T22:35:26.650Z,40.33
2018-07-26T22:37:54.828Z,39.63
2018-07-26T22:40:22.889Z,39.71
2018-07-26T22:42:50.953Z,39.94
2018-07-26T22:45:18.995Z,41.04
2018-07-26T22:47:47.027Z,39.87
2018-07-26T22:50:15.068Z,40.73
2018-07-26T22:52:43.093Z,39.92
2018-07-26T22:55:11.139Z,40.94
2018-07-26T22:57:39.188Z,41.05
2018-07-26T23:00:07.638Z,40.29
2018-07-26T23:02:35.682Z,41.03
2018-07-26T23:05:03.895Z,40.81
2018-07-26T23:07:31.945Z,41.27
2018-07-26T23:09:59.985Z,40.23
2018-07-26T23:12:28.022Z,41.03
2018-07-26T23:14:56.092Z,40.47
2018-07-26T23:17:24.140Z,40.72
2018-07-26T23:19:52.180Z,40.73
2018-07-26T23:22:20.208Z,41.32
2018-07-26T23:24:48.248Z,40.04
2018-07-26T23:27:16.322Z,40.19
2018-07-26T23:29:44.378Z,41.35
2018-07-26T23:32:12.404Z,40.71
2018-07-26T23:34:40.463Z,41.10
2018-07-26T23:37:08.503Z,41.10
2018-07-26T23:39:36.520Z,40.67
2018-07-26T23:42:04.923Z,41.57
2018-07-26T23:44:32.960Z,41.46
2018-07-26T23:47:00.987Z,41.47
2018-07-26T23:49:29.036Z,41.18
2018-07-26T23:51:57.093Z,41.34
2018-07-26T23:54:25.113Z,41.57
2018-07-26T23:56:53.185Z,41.87
2018-07-26T23:59:21.260Z,41.63
